createdAt,value
2022-08-20T00:01:29.773Z,24.44
2022-08-20T00:04:06.404Z,24.41
2022-08-20T00:06:40.449Z,24.38
2022-08-20T00:09:12.241Z,24.36
2022-08-20T00:11:44.607Z,24.34
2022-08-20T00:14:16.723Z,24.31
2022-08-20T00:16:48.625Z,24.27
2022-08-20T00:19:21.389Z,24.24
2022-08-20T00:21:57.991Z,24.20
2022-08-20T00:24:34.353Z,24.15
2022-08-20T00:27:06.700Z,24.11
2022-08-20T00:29:38.983Z,24.08
2022-08-20T00:32:11.020Z,24.02
2022-08-20T00:34:42.998Z,24.03
2022-08-20T00:37:15.530Z,23.96
2022-08-20T00:39:47.687Z,23.92
2022-08-20T00:42:19.545Z,23.90
2022-08-20T00:44:55.909Z,23.89
2022-08-20T00:47:27.791Z,23.89
2022-08-20T00:50:02.177Z,23.87
2022-08-20T00:52:34.574Z,23.85
2022-08-20T00:55:08.684Z,23.81
2022-08-20T00:58:01.369Z,23.75
2022-08-20T01:00:38.875Z,23.72
2022-08-20T01:03:15.041Z,23.67
2022-08-20T01:05:50.440Z,23.64
2022-08-20T01:08:26.796Z,23.62
2022-08-20T01:11:10.058Z,23.58
2022-08-20T01:13:44.700Z,23.53
2022-08-20T01:16:24.689Z,23.50
2022-08-20T01:18:58.719Z,23.48
2022-08-20T01:21:33.774Z,23.44
2022-08-20T01:24:21.056Z,23.42
2022-08-20T01:26:54.573Z,23.40
2022-08-20T01:29:33.854Z,23.34
2022-08-20T01:32:09.043Z,23.26
2022-08-20T01:34:41.073Z,23.23
2022-08-20T01:37:15.171Z,23.18
2022-08-20T01:39:47.107Z,23.13
2022-08-20T01:42:27.002Z,23.08
2022-08-20T01:44:59.020Z,23.05
2022-08-20T01:47:38.565Z,23.00
2022-08-20T01:50:25.233Z,22.96
2022-08-20T01:53:04.515Z,22.90
2022-08-20T01:55:36.663Z,22.85
2022-08-20T01:58:08.514Z,22.82
2022-08-20T02:00:40.605Z,22.75
2022-08-20T02:03:12.479Z,22.72
2022-08-20T02:05:45.064Z,22.66
2022-08-20T02:08:17.034Z,22.63
2022-08-20T02:10:49.352Z,22.63
2022-08-20T02:13:21.982Z,22.62
2022-08-20T02:15:53.864Z,22.56
2022-08-20T02:18:27.200Z,22.53
2022-08-20T02:20:59.313Z,22.53
2022-08-20T02:23:31.451Z,22.52
2022-08-20T02:26:03.381Z,22.50
2022-08-20T02:28:35.528Z,22.50
2022-08-20T02:31:09.392Z,22.51
2022-08-20T02:33:41.182Z,22.52
2022-08-20T02:36:36.547Z,22.53
2022-08-20T02:39:11.603Z,22.53
2022-08-20T02:41:44.070Z,22.54
2022-08-20T02:44:16.977Z,22.54
2022-08-20T02:46:51.240Z,22.54
2022-08-20T02:49:23.812Z,22.54
2022-08-20T02:51:55.714Z,22.55
2022-08-20T02:54:29.440Z,22.54
2022-08-20T02:57:02.433Z,22.55
2022-08-20T02:59:34.287Z,22.54
2022-08-20T03:02:06.560Z,22.55
2022-08-20T03:04:43.375Z,22.57
2022-08-20T03:07:18.057Z,22.56
2022-08-20T03:09:51.573Z,22.56
2022-08-20T03:12:23.382Z,22.56
2022-08-20T03:14:55.173Z,22.56
2022-08-20T03:17:27.122Z,22.57
2022-08-20T03:19:58.963Z,22.57
2022-08-20T03:22:30.833Z,22.56
2022-08-20T03:25:03.142Z,22.55
2022-08-20T03:27:36.438Z,22.56
2022-08-20T03:30:13.662Z,22.56
2022-08-20T03:32:46.406Z,22.56
2022-08-20T03:35:21.751Z,22.55
2022-08-20T03:37:53.972Z,22.56
2022-08-20T03:40:31.951Z,22.54
2022-08-20T03:43:04.980Z,22.56
2022-08-20T03:45:38.349Z,22.56
2022-08-20T03:48:13.256Z,22.55
2022-08-20T03:50:48.230Z,22.56
2022-08-20T03:53:23.589Z,22.56
2022-08-20T03:56:00.463Z,22.56
2022-08-20T03:58:36.036Z,22.55
2022-08-20T04:01:45.207Z,22.56
2022-08-20T04:04:01.796Z,22.55
2022-08-20T04:06:33.770Z,22.53
2022-08-20T04:09:05.842Z,22.53
2022-08-20T04:11:38.566Z,22.53
2022-08-20T04:14:18.570Z,22.53
2022-08-20T04:16:51.811Z,22.54
2022-08-20T04:19:34.407Z,22.53
2022-08-20T04:22:08.163Z,22.52
2022-08-20T04:24:40.253Z,22.51
2022-08-20T04:27:14.982Z,22.53
2022-08-20T04:29:47.113Z,22.53
2022-08-20T04:32:19.124Z,22.54
2022-08-20T04:34:52.304Z,22.55
2022-08-20T04:37:25.487Z,22.57
2022-08-20T04:40:15.616Z,22.60
2022-08-20T04:42:49.982Z,22.62
2022-08-20T04:45:25.880Z,22.66
2022-08-20T04:47:57.855Z,22.69
2022-08-20T04:50:30.101Z,22.74
2022-08-20T04:53:02.580Z,22.77
2022-08-20T04:55:35.499Z,22.76
2022-08-20T04:58:10.004Z,22.82
2022-08-20T05:00:42.209Z,22.85
2022-08-20T05:03:14.119Z,22.88
2022-08-20T05:05:46.682Z,22.92
2022-08-20T05:08:23.317Z,22.95
2022-08-20T05:10:59.882Z,22.98
2022-08-20T05:13:50.611Z,23.02
2022-08-20T05:16:24.226Z,23.05
2022-08-20T05:18:57.302Z,23.07
2022-08-20T05:21:29.562Z,23.10
2022-08-20T05:24:02.597Z,23.13
2022-08-20T05:27:24.930Z,23.18
2022-08-20T05:30:14.065Z,23.23
2022-08-20T05:32:48.943Z,23.24
2022-08-20T05:35:20.994Z,23.29
2022-08-20T05:38:38.021Z,23.31
2022-08-20T05:41:13.923Z,23.32
2022-08-20T05:44:02.936Z,23.35
2022-08-20T05:46:34.748Z,23.38
2022-08-20T05:49:08.041Z,23.41
2022-08-20T05:51:40.614Z,23.45
2022-08-20T05:54:12.998Z,23.50
2022-08-20T05:56:45.013Z,23.51
2022-08-20T05:59:19.976Z,23.54
2022-08-20T06:01:56.533Z,23.53
2022-08-20T06:04:32.183Z,23.53
2022-08-20T06:07:08.084Z,23.55
2022-08-20T06:09:44.339Z,23.56
2022-08-20T06:12:17.090Z,23.59
2022-08-20T06:14:49.142Z,23.61
2022-08-20T06:17:22.310Z,23.62
2022-08-20T06:19:54.360Z,23.65
2022-08-20T06:22:26.191Z,23.67
2022-08-20T06:24:58.929Z,23.71
2022-08-20T06:27:31.543Z,23.74
2022-08-20T06:30:04.174Z,23.76
2022-08-20T06:32:36.904Z,23.80
2022-08-20T06:35:11.609Z,23.85
2022-08-20T06:37:43.420Z,23.89
2022-08-20T06:40:21.305Z,23.93
2022-08-20T06:42:53.820Z,23.99
2022-08-20T06:45:27.898Z,24.06
2022-08-20T06:48:01.963Z,24.12
2022-08-20T06:50:47.277Z,24.18
2022-08-20T06:53:21.927Z,24.27
2022-08-20T06:55:56.967Z,24.37
2022-08-20T06:58:37.745Z,24.45
2022-08-20T07:01:12.327Z,24.51
2022-08-20T07:03:55.551Z,24.56
2022-08-20T07:06:28.627Z,24.62
2022-08-20T07:09:00.735Z,24.67
2022-08-20T07:11:33.155Z,24.71
2022-08-20T07:14:06.025Z,24.74
2022-08-20T07:16:37.882Z,24.81
2022-08-20T07:19:09.825Z,24.84
2022-08-20T07:21:42.090Z,24.87
2022-08-20T07:24:14.044Z,24.88
2022-08-20T07:26:45.874Z,24.88
2022-08-20T07:29:21.731Z,24.89
2022-08-20T07:32:11.558Z,24.91
2022-08-20T07:34:44.705Z,24.94
2022-08-20T07:37:16.759Z,24.95
2022-08-20T07:39:52.384Z,24.96
2022-08-20T07:42:24.596Z,24.96
2022-08-20T07:44:56.669Z,24.92
2022-08-20T07:47:28.754Z,24.91
2022-08-20T07:50:00.731Z,24.93
2022-08-20T07:52:35.496Z,24.95
2022-08-20T07:55:12.692Z,24.93
2022-08-20T07:57:46.953Z,24.90
2022-08-20T08:00:21.215Z,24.88
2022-08-20T08:02:53.191Z,24.87
2022-08-20T08:05:26.326Z,24.88
2022-08-20T08:07:58.969Z,24.87
2022-08-20T08:10:31.687Z,24.84
2022-08-20T08:13:08.794Z,24.82
2022-08-20T08:15:43.460Z,24.79
2022-08-20T08:18:21.747Z,24.77
2022-08-20T08:20:56.900Z,24.76
2022-08-20T08:23:31.586Z,24.71
2022-08-20T08:26:04.439Z,24.71
2022-08-20T08:28:37.172Z,24.70
2022-08-20T08:31:09.338Z,24.72
2022-08-20T08:33:41.899Z,24.73
2022-08-20T08:36:16.329Z,24.76
2022-08-20T08:38:48.762Z,24.79
2022-08-20T08:41:31.426Z,24.84
2022-08-20T08:44:09.582Z,24.90
2022-08-20T08:46:44.416Z,24.96
2022-08-20T08:49:19.770Z,25.07
2022-08-20T08:51:57.190Z,25.15
2022-08-20T08:54:33.489Z,25.21
2022-08-20T08:57:07.849Z,25.27
2022-08-20T08:59:48.502Z,25.32
2022-08-20T09:02:36.438Z,25.33
2022-08-20T09:05:17.865Z,25.34
2022-08-20T09:07:54.346Z,25.33
2022-08-20T09:10:29.318Z,25.32
2022-08-20T09:13:02.396Z,25.30
2022-08-20T09:15:37.741Z,25.28
2022-08-20T09:18:09.781Z,25.27
2022-08-20T09:20:41.776Z,25.30
2022-08-20T09:23:13.731Z,25.34
2022-08-20T09:25:46.882Z,25.39
2022-08-20T09:28:18.932Z,25.39
2022-08-20T09:30:51.105Z,25.38
2022-08-20T09:33:23.454Z,25.36
2022-08-20T09:35:55.870Z,25.37
2022-08-20T09:38:27.747Z,25.42
2022-08-20T09:40:59.910Z,25.55
2022-08-20T09:43:31.956Z,25.69
2022-08-20T09:46:04.012Z,25.83
2022-08-20T09:48:36.251Z,25.98
2022-08-20T09:51:08.716Z,26.10
2022-08-20T09:53:41.003Z,26.23
2022-08-20T09:56:15.186Z,26.40
2022-08-20T09:58:53.218Z,26.52
2022-08-20T10:01:25.708Z,26.64
2022-08-20T10:03:57.634Z,26.70
2022-08-20T10:06:32.422Z,26.72
2022-08-20T10:09:07.215Z,26.69
2022-08-20T10:11:39.155Z,26.72
2022-08-20T10:14:10.943Z,26.73
2022-08-20T10:16:43.091Z,26.69
2022-08-20T10:19:14.910Z,26.66
2022-08-20T10:21:46.895Z,26.69
2022-08-20T10:24:19.446Z,26.69
2022-08-20T10:26:51.769Z,26.66
2022-08-20T10:29:23.906Z,26.63
2022-08-20T10:31:57.253Z,26.59
2022-08-20T10:34:29.374Z,26.61
2022-08-20T10:37:01.465Z,26.68
2022-08-20T10:39:33.290Z,26.75
2022-08-20T10:42:05.619Z,26.81
2022-08-20T10:44:37.706Z,26.87
2022-08-20T10:47:26.653Z,26.94
2022-08-20T10:50:02.141Z,26.98
2022-08-20T10:52:34.401Z,27.04
2022-08-20T10:55:07.911Z,27.09
2022-08-20T10:57:41.892Z,27.13
2022-08-20T11:00:18.335Z,27.19
2022-08-20T11:02:50.862Z,27.24
2022-08-20T11:05:22.798Z,27.27
2022-08-20T11:08:00.281Z,27.35
2022-08-20T11:10:35.055Z,27.42
2022-08-20T11:13:08.668Z,27.49
2022-08-20T11:15:42.784Z,27.56
2022-08-20T11:18:15.589Z,27.60
2022-08-20T11:20:49.028Z,27.66
2022-08-20T11:23:21.013Z,27.73
2022-08-20T11:25:53.841Z,27.79
2022-08-20T11:28:31.412Z,27.85
2022-08-20T11:31:04.584Z,27.89
2022-08-20T11:33:38.277Z,27.94
2022-08-20T11:36:12.210Z,27.97
2022-08-20T11:38:44.495Z,28.01
2022-08-20T11:41:17.266Z,28.06
2022-08-20T11:44:10.555Z,28.11
2022-08-20T11:46:41.252Z,28.13
2022-08-20T11:49:13.451Z,28.14
2022-08-20T11:51:49.479Z,28.16
2022-08-20T11:54:22.030Z,28.24
2022-08-20T11:56:53.943Z,28.30
2022-08-20T11:59:26.032Z,28.34
2022-08-20T12:02:03.339Z,28.35
2022-08-20T12:04:36.300Z,28.36
2022-08-20T12:07:14.783Z,28.38
2022-08-20T12:09:50.904Z,28.37
2022-08-20T12:12:24.665Z,28.36
2022-08-20T12:14:57.997Z,28.38
2022-08-20T12:17:32.871Z,28.43
2022-08-20T12:20:12.335Z,28.44
2022-08-20T12:22:45.009Z,28.47
2022-08-20T12:25:17.491Z,28.52
2022-08-20T12:27:49.697Z,28.53
2022-08-20T12:30:24.786Z,28.59
2022-08-20T12:32:56.715Z,28.63
2022-08-20T12:35:29.905Z,28.60
2022-08-20T12:38:07.114Z,28.58
2022-08-20T12:40:39.577Z,28.59
2022-08-20T12:43:11.493Z,28.61
2022-08-20T12:45:43.538Z,28.69
2022-08-20T12:48:16.183Z,28.73
2022-08-20T12:50:50.113Z,28.75
2022-08-20T12:53:24.683Z,28.77
2022-08-20T12:55:57.123Z,28.75
2022-08-20T12:58:29.193Z,28.79
2022-08-20T13:01:01.065Z,28.82
2022-08-20T13:03:33.011Z,28.82
2022-08-20T13:06:12.774Z,28.83
2022-08-20T13:08:44.656Z,28.79
2022-08-20T13:11:16.715Z,28.78
2022-08-20T13:13:48.709Z,28.78
2022-08-20T13:16:20.668Z,28.77
2022-08-20T13:18:52.588Z,28.78
2022-08-20T13:21:24.406Z,28.79
2022-08-20T13:23:56.414Z,28.81
2022-08-20T13:26:28.301Z,28.79
2022-08-20T13:29:00.241Z,28.82
2022-08-20T13:31:35.188Z,28.82
2022-08-20T13:34:07.101Z,28.85
2022-08-20T13:36:39.121Z,28.86
2022-08-20T13:39:11.063Z,28.84
2022-08-20T13:41:43.775Z,28.82
2022-08-20T13:44:15.568Z,28.83
2022-08-20T13:46:48.718Z,28.81
2022-08-20T13:49:20.751Z,28.80
2022-08-20T13:51:52.650Z,28.82
2022-08-20T13:54:27.174Z,28.85
2022-08-20T13:57:10.352Z,28.88
2022-08-20T13:59:44.028Z,28.90
2022-08-20T14:02:18.561Z,28.93
2022-08-20T14:04:51.898Z,28.95
2022-08-20T14:07:31.979Z,28.95
2022-08-20T14:10:09.200Z,28.97
2022-08-20T14:12:41.255Z,28.93
2022-08-20T14:15:15.385Z,28.92
2022-08-20T14:17:53.841Z,28.88
2022-08-20T14:20:29.288Z,28.87
2022-08-20T14:23:04.321Z,28.85
2022-08-20T14:25:36.736Z,28.80
2022-08-20T14:28:18.663Z,28.77
2022-08-20T14:30:53.302Z,28.78
2022-08-20T14:33:26.824Z,28.78
2022-08-20T14:35:59.009Z,28.78
2022-08-20T14:38:30.784Z,28.78
2022-08-20T14:41:02.758Z,28.75
2022-08-20T14:43:34.586Z,28.73
2022-08-20T14:46:06.678Z,28.73
2022-08-20T14:48:38.619Z,28.69
2022-08-20T14:51:10.738Z,28.63
2022-08-20T14:53:42.553Z,28.61
2022-08-20T14:56:15.695Z,28.55
2022-08-20T14:58:47.641Z,28.53
2022-08-20T15:01:19.734Z,28.53
2022-08-20T15:03:51.785Z,28.51
2022-08-20T15:06:25.937Z,28.55
2022-08-20T15:08:58.138Z,28.58
2022-08-20T15:11:34.099Z,28.60
2022-08-20T15:14:06.620Z,28.59
2022-08-20T15:16:39.503Z,28.54
2022-08-20T15:19:11.467Z,28.49
2022-08-20T15:21:45.079Z,28.46
2022-08-20T15:24:19.363Z,28.45
2022-08-20T15:26:51.741Z,28.41
2022-08-20T15:29:23.693Z,28.39
2022-08-20T15:31:56.042Z,28.34
2022-08-20T15:34:31.914Z,28.30
2022-08-20T15:37:09.795Z,28.27
2022-08-20T15:39:45.723Z,28.23
2022-08-20T15:42:18.949Z,28.19
2022-08-20T15:44:51.788Z,28.21
2022-08-20T15:47:29.270Z,28.22
2022-08-20T15:50:07.984Z,28.19
2022-08-20T15:52:47.801Z,28.17
2022-08-20T15:55:20.074Z,28.15
2022-08-20T15:58:02.559Z,28.16
2022-08-20T16:00:41.733Z,28.17
2022-08-20T16:03:35.333Z,28.17
2022-08-20T16:06:13.677Z,28.19
2022-08-20T16:09:03.345Z,28.17
2022-08-20T16:11:52.287Z,28.11
2022-08-20T16:14:29.395Z,28.04
2022-08-20T16:17:10.978Z,27.99
2022-08-20T16:19:52.881Z,27.93
2022-08-20T16:22:35.254Z,27.88
2022-08-20T16:25:08.952Z,27.83
2022-08-20T16:27:50.414Z,27.79
2022-08-20T16:30:33.742Z,27.71
2022-08-20T16:33:10.756Z,27.63
2022-08-20T16:35:52.224Z,27.59
2022-08-20T16:38:34.382Z,27.52
2022-08-20T16:41:14.234Z,27.46
2022-08-20T16:43:53.517Z,27.41
2022-08-20T16:46:30.042Z,27.37
2022-08-20T16:49:06.509Z,27.32
2022-08-20T16:51:46.155Z,27.26
2022-08-20T16:54:28.445Z,27.18
2022-08-20T16:57:06.085Z,27.11
2022-08-20T16:59:57.468Z,27.07
2022-08-20T17:02:29.725Z,27.04
2022-08-20T17:05:06.739Z,26.99
2022-08-20T17:07:49.446Z,26.93
2022-08-20T17:10:26.819Z,26.86
2022-08-20T17:13:04.064Z,26.81
2022-08-20T17:15:38.715Z,26.78
2022-08-20T17:18:29.368Z,26.74
2022-08-20T17:21:06.107Z,26.68
2022-08-20T17:23:55.592Z,26.61
2022-08-20T17:26:36.159Z,26.57
2022-08-20T17:29:16.356Z,26.52
2022-08-20T17:31:52.711Z,26.46
2022-08-20T17:34:28.568Z,26.44
2022-08-20T17:37:04.700Z,26.40
2022-08-20T17:39:45.826Z,26.35
2022-08-20T17:42:22.608Z,26.30
2022-08-20T17:45:03.096Z,26.26
2022-08-20T17:47:40.115Z,26.22
2022-08-20T17:50:20.837Z,26.19
2022-08-20T17:53:03.597Z,26.14
2022-08-20T17:55:39.064Z,26.11
2022-08-20T17:58:16.464Z,26.08
2022-08-20T18:00:48.481Z,26.05
2022-08-20T18:03:23.686Z,26.02
2022-08-20T18:06:12.043Z,25.98
2022-08-20T18:09:00.575Z,25.92
2022-08-20T18:11:40.666Z,25.89
2022-08-20T18:14:35.342Z,25.86
2022-08-20T18:17:18.517Z,25.83
2022-08-20T18:20:21.277Z,25.79
2022-08-20T18:22:59.276Z,25.75
2022-08-20T18:25:37.067Z,25.72
2022-08-20T18:28:15.591Z,25.69
2022-08-20T18:30:57.089Z,25.66
2022-08-20T18:33:33.375Z,25.62
2022-08-20T18:36:11.721Z,25.59
2022-08-20T18:38:56.426Z,25.55
2022-08-20T18:41:32.854Z,25.51
2022-08-20T18:44:09.048Z,25.47
2022-08-20T18:46:54.491Z,25.44
2022-08-20T18:49:33.906Z,25.40
2022-08-20T18:52:14.573Z,25.37
2022-08-20T18:54:55.639Z,25.35
2022-08-20T18:57:40.697Z,25.32
2022-08-20T19:00:18.392Z,25.30
2022-08-20T19:02:58.129Z,25.27
2022-08-20T19:05:38.203Z,25.23
2022-08-20T19:08:10.724Z,25.19
2022-08-20T19:10:51.254Z,25.17
2022-08-20T19:13:49.713Z,25.15
2022-08-20T19:16:37.205Z,25.11
2022-08-20T19:19:16.967Z,25.08
2022-08-20T19:21:49.449Z,25.05
2022-08-20T19:24:28.716Z,25.02
2022-08-20T19:27:04.732Z,25.01
2022-08-20T19:29:43.591Z,24.98
2022-08-20T19:32:22.125Z,24.95
2022-08-20T19:34:57.211Z,24.92
2022-08-20T19:37:39.842Z,24.89
2022-08-20T19:40:28.315Z,24.86
2022-08-20T19:43:03.563Z,24.84
2022-08-20T19:45:45.360Z,24.82
2022-08-20T19:48:42.595Z,24.80
2022-08-20T19:51:23.901Z,24.78
2022-08-20T19:53:55.996Z,24.77
2022-08-20T19:56:29.545Z,24.75
2022-08-20T19:59:05.283Z,24.73
2022-08-20T20:01:37.612Z,24.73
2022-08-20T20:04:18.076Z,24.72
2022-08-20T20:06:51.672Z,24.68
2022-08-20T20:09:28.340Z,24.67
2022-08-20T20:12:09.682Z,24.65
2022-08-20T20:14:54.996Z,24.61
2022-08-20T20:17:32.926Z,24.60
2022-08-20T20:20:21.574Z,24.58
2022-08-20T20:23:00.901Z,24.57
2022-08-20T20:25:45.788Z,24.55
2022-08-20T20:28:23.989Z,24.53
2022-08-20T20:31:06.438Z,24.52
2022-08-20T20:33:43.927Z,24.52
2022-08-20T20:36:19.954Z,24.51
2022-08-20T20:38:59.201Z,24.49
2022-08-20T20:41:36.077Z,24.46
2022-08-20T20:44:21.227Z,24.43
2022-08-20T20:46:57.304Z,24.42
2022-08-20T20:49:32.404Z,24.40
2022-08-20T20:52:15.136Z,24.34
2022-08-20T20:54:49.044Z,24.29
2022-08-20T20:57:32.682Z,24.24
2022-08-20T21:00:17.524Z,24.18
2022-08-20T21:02:53.280Z,24.13
2022-08-20T21:05:28.757Z,24.07
2022-08-20T21:08:03.428Z,24.02
2022-08-20T21:10:38.577Z,23.98
2022-08-20T21:13:13.700Z,23.94
2022-08-20T21:15:45.843Z,23.90
2022-08-20T21:18:21.903Z,23.87
2022-08-20T21:20:58.662Z,23.83
2022-08-20T21:23:39.622Z,23.77
2022-08-20T21:26:14.503Z,23.75
2022-08-20T21:28:46.505Z,23.73
2022-08-20T21:31:18.447Z,23.68
2022-08-20T21:33:50.490Z,23.63
2022-08-20T21:36:22.494Z,23.56
2022-08-20T21:38:54.477Z,23.49
2022-08-20T21:41:29.874Z,23.44
2022-08-20T21:44:04.993Z,23.41
2022-08-20T21:46:36.922Z,23.37
2022-08-20T21:49:09.105Z,23.33
2022-08-20T21:51:40.948Z,23.30
2022-08-20T21:54:12.812Z,23.23
2022-08-20T21:56:47.164Z,23.19
2022-08-20T21:59:20.692Z,23.17
2022-08-20T22:01:53.158Z,23.16
2022-08-20T22:04:45.742Z,23.14
2022-08-20T22:07:18.130Z,23.12
2022-08-20T22:09:51.076Z,23.09
2022-08-20T22:12:26.706Z,23.05
2022-08-20T22:14:58.554Z,23.02
2022-08-20T22:17:30.813Z,23.00
2022-08-20T22:20:02.701Z,22.98
2022-08-20T22:22:34.789Z,22.97
2022-08-20T22:25:07.901Z,22.95
2022-08-20T22:27:44.355Z,22.91
2022-08-20T22:30:16.568Z,22.89
2022-08-20T22:32:51.786Z,22.88
2022-08-20T22:35:25.031Z,22.87
2022-08-20T22:37:57.212Z,22.86
2022-08-20T22:40:29.103Z,22.86
2022-08-20T22:43:01.182Z,22.86
2022-08-20T22:45:33.333Z,22.84
2022-08-20T22:48:06.826Z,22.87
2022-08-20T22:50:39.671Z,22.88
2022-08-20T22:53:16.003Z,22.89
2022-08-20T22:55:47.958Z,22.90
2022-08-20T22:58:21.000Z,22.92
2022-08-20T23:01:04.728Z,22.92
2022-08-20T23:03:39.083Z,22.91
2022-08-20T23:06:13.840Z,22.89
2022-08-20T23:08:46.633Z,22.90
2022-08-20T23:11:20.636Z,22.89
2022-08-20T23:13:52.698Z,22.89
2022-08-20T23:16:25.112Z,22.88
2022-08-20T23:22:15.045Z,22.85
2022-08-20T23:24:47.764Z,22.83
2022-08-20T23:27:21.823Z,22.83
2022-08-20T23:29:54.260Z,22.81
2022-08-20T23:32:26.250Z,22.79
2022-08-20T23:34:58.080Z,22.77
2022-08-20T23:37:31.277Z,22.76
2022-08-20T23:40:05.915Z,22.75
2022-08-20T23:42:38.423Z,22.74
2022-08-20T23:45:12.954Z,22.73
2022-08-20T23:47:45.447Z,22.69
2022-08-20T23:50:21.225Z,22.67
2022-08-20T23:53:00.150Z,22.63
2022-08-20T23:55:33.113Z,22.61
2022-08-20T23:58:05.567Z,22.60
